sensor_id;sensor_type;location;lat;lon;timestamp;pressure;altitude;pressure_sealevel;temperature;humidity
46456;BME280;64052;47.466;9.094;2023-03-15T00:04:38;95240.41;;;7.36;64.47
46456;BME280;64052;47.466;9.094;2023-03-15T00:09:39;95257.69;;;7.27;64.30
46456;BME280;64052;47.466;9.094;2023-03-15T00:14:41;95279.88;;;7.23;64.85
46456;BME280;64052;47.466;9.094;2023-03-15T00:19:42;95303.06;;;7.06;65.51
46456;BME280;64052;47.466;9.094;2023-03-15T00:24:44;95287.47;;;6.93;64.30
46456;BME280;64052;47.466;9.094;2023-03-15T00:29:46;95305.72;;;6.95;64.14
46456;BME280;64052;47.466;9.094;2023-03-15T00:34:47;95310.25;;;6.93;64.34
46456;BME280;64052;47.466;9.094;2023-03-15T00:39:49;95318.19;;;7.02;63.42
46456;BME280;64052;47.466;9.094;2023-03-15T00:44:50;95330.72;;;6.99;62.93
46456;BME280;64052;47.466;9.094;2023-03-15T00:49:52;95332.47;;;7.10;63.45
46456;BME280;64052;47.466;9.094;2023-03-15T00:54:56;95338.81;;;7.07;63.01
46456;BME280;64052;47.466;9.094;2023-03-15T00:59:57;95347.47;;;7.08;61.99
46456;BME280;64052;47.466;9.094;2023-03-15T01:05:00;95367.91;;;6.93;62.90
46456;BME280;64052;47.466;9.094;2023-03-15T01:10:03;95380.75;;;6.96;62.44
46456;BME280;64052;47.466;9.094;2023-03-15T01:15:07;95396.13;;;7.12;62.56
46456;BME280;64052;47.466;9.094;2023-03-15T01:20:12;95402.78;;;7.05;62.45
46456;BME280;64052;47.466;9.094;2023-03-15T01:25:15;95414.34;;;7.13;62.46
46456;BME280;64052;47.466;9.094;2023-03-15T01:30:18;95416.25;;;7.11;61.87
46456;BME280;64052;47.466;9.094;2023-03-15T01:35:21;95428.03;;;7.06;62.25
46456;BME280;64052;47.466;9.094;2023-03-15T01:40:23;95440.91;;;6.97;62.41
46456;BME280;64052;47.466;9.094;2023-03-15T01:46:04;95454.38;;;6.93;61.30
46456;BME280;64052;47.466;9.094;2023-03-15T01:51:23;95463.31;;;7.01;62.02
46456;BME280;64052;47.466;9.094;2023-03-15T01:56:27;95478.69;;;7.06;60.22
46456;BME280;64052;47.466;9.094;2023-03-15T02:01:29;95477.13;;;7.03;60.19
46456;BME280;64052;47.466;9.094;2023-03-15T02:06:33;95497.06;;;7.17;58.01
46456;BME280;64052;47.466;9.094;2023-03-15T02:11:35;95502.50;;;6.80;58.54
46456;BME280;64052;47.466;9.094;2023-03-15T02:16:38;95512.38;;;6.88;57.89
46456;BME280;64052;47.466;9.094;2023-03-15T02:22:00;95530.41;;;7.04;58.05
46456;BME280;64052;47.466;9.094;2023-03-15T02:27:05;95531.38;;;7.26;56.54
46456;BME280;64052;47.466;9.094;2023-03-15T02:32:07;95543.16;;;7.09;55.38
46456;BME280;64052;47.466;9.094;2023-03-15T02:37:09;95553.44;;;7.23;56.19
46456;BME280;64052;47.466;9.094;2023-03-15T02:42:10;95554.72;;;7.40;54.94
46456;BME280;64052;47.466;9.094;2023-03-15T02:47:16;95564.75;;;7.35;54.82
46456;BME280;64052;47.466;9.094;2023-03-15T02:52:19;95573.44;;;7.13;53.18
46456;BME280;64052;47.466;9.094;2023-03-15T02:57:21;95584.41;;;7.29;53.04
46456;BME280;64052;47.466;9.094;2023-03-15T03:02:23;95593.94;;;7.19;53.14
46456;BME280;64052;47.466;9.094;2023-03-15T03:07:25;95585.09;;;7.09;52.34
46456;BME280;64052;47.466;9.094;2023-03-15T03:12:33;95596.16;;;7.01;52.01
46456;BME280;64052;47.466;9.094;2023-03-15T03:17:34;95610.69;;;6.94;53.08
46456;BME280;64052;47.466;9.094;2023-03-15T03:22:37;95614.03;;;6.96;52.38
46456;BME280;64052;47.466;9.094;2023-03-15T03:27:40;95618.31;;;6.97;51.71
46456;BME280;64052;47.466;9.094;2023-03-15T03:32:43;95625.09;;;6.88;51.57
46456;BME280;64052;47.466;9.094;2023-03-15T03:37:46;95632.91;;;6.77;52.48
46456;BME280;64052;47.466;9.094;2023-03-15T03:42:52;95642.13;;;6.69;53.09
46456;BME280;64052;47.466;9.094;2023-03-15T03:47:54;95648.84;;;6.49;53.57
46456;BME280;64052;47.466;9.094;2023-03-15T03:52:56;95659.25;;;6.38;54.43
46456;BME280;64052;47.466;9.094;2023-03-15T03:58:03;95665.81;;;6.19;55.28
46456;BME280;64052;47.466;9.094;2023-03-15T04:03:27;95670.31;;;6.04;56.10
46456;BME280;64052;47.466;9.094;2023-03-15T04:08:37;95679.94;;;5.90;56.63
46456;BME280;64052;47.466;9.094;2023-03-15T04:13:40;95679.84;;;5.66;56.73
46456;BME280;64052;47.466;9.094;2023-03-15T04:18:43;95689.16;;;5.57;57.13
46456;BME280;64052;47.466;9.094;2023-03-15T04:23:45;95684.25;;;5.40;57.03
46456;BME280;64052;47.466;9.094;2023-03-15T04:28:57;95703.91;;;5.45;57.49
46456;BME280;64052;47.466;9.094;2023-03-15T04:34:02;95699.63;;;5.44;57.13
46456;BME280;64052;47.466;9.094;2023-03-15T04:39:30;95706.09;;;5.52;57.79
46456;BME280;64052;47.466;9.094;2023-03-15T04:44:51;95719.59;;;5.58;57.17
46456;BME280;64052;47.466;9.094;2023-03-15T04:50:10;95722.34;;;5.57;57.09
46456;BME280;64052;47.466;9.094;2023-03-15T04:55:38;95724.53;;;5.50;56.97
46456;BME280;64052;47.466;9.094;2023-03-15T05:00:54;95730.16;;;5.70;56.96
46456;BME280;64052;47.466;9.094;2023-03-15T05:06:23;95730.38;;;5.67;56.66
46456;BME280;64052;47.466;9.094;2023-03-15T05:11:39;95747.31;;;5.61;56.43
46456;BME280;64052;47.466;9.094;2023-03-15T05:17:08;95756.13;;;5.60;56.33
46456;BME280;64052;47.466;9.094;2023-03-15T05:22:45;95764.31;;;5.28;56.72
46456;BME280;64052;47.466;9.094;2023-03-15T05:28:22;95773.94;;;5.00;57.81
46456;BME280;64052;47.466;9.094;2023-03-15T05:33:45;95777.56;;;4.97;58.31
46456;BME280;64052;47.466;9.094;2023-03-15T05:39:24;95784.75;;;4.93;57.26
46456;BME280;64052;47.466;9.094;2023-03-15T05:44:40;95786.06;;;5.01;57.44
46456;BME280;64052;47.466;9.094;2023-03-15T05:50:08;95784.75;;;4.93;56.80
46456;BME280;64052;47.466;9.094;2023-03-15T05:55:22;95790.75;;;4.96;57.63
46456;BME280;64052;47.466;9.094;2023-03-15T06:00:36;95795.63;;;4.87;57.99
46456;BME280;64052;47.466;9.094;2023-03-15T06:05:47;95805.94;;;4.61;58.04
46456;BME280;64052;47.466;9.094;2023-03-15T06:10:55;95798.56;;;4.54;58.44
46456;BME280;64052;47.466;9.094;2023-03-15T06:15:56;95803.69;;;4.55;59.12
46456;BME280;64052;47.466;9.094;2023-03-15T06:20:58;95807.97;;;4.71;58.73
46456;BME280;64052;47.466;9.094;2023-03-15T06:26:00;95812.06;;;4.75;58.45
46456;BME280;64052;47.466;9.094;2023-03-15T06:31:09;95818.72;;;4.93;58.62
46456;BME280;64052;47.466;9.094;2023-03-15T06:36:21;95819.91;;;5.17;58.57
46456;BME280;64052;47.466;9.094;2023-03-15T06:41:23;95817.47;;;5.41;57.53
46456;BME280;64052;47.466;9.094;2023-03-15T06:46:30;95818.66;;;5.50;56.90
46456;BME280;64052;47.466;9.094;2023-03-15T06:51:32;95828.19;;;5.64;56.69
46456;BME280;64052;47.466;9.094;2023-03-15T06:56:34;95829.50;;;5.84;56.08
46456;BME280;64052;47.466;9.094;2023-03-15T07:01:35;95820.53;;;6.01;55.73
46456;BME280;64052;47.466;9.094;2023-03-15T07:06:37;95832.06;;;6.12;55.72
46456;BME280;64052;47.466;9.094;2023-03-15T07:11:38;95829.56;;;6.23;54.88
46456;BME280;64052;47.466;9.094;2023-03-15T07:16:40;95834.38;;;6.55;54.14
46456;BME280;64052;47.466;9.094;2023-03-15T07:21:41;95836.78;;;7.09;53.05
46456;BME280;64052;47.466;9.094;2023-03-15T07:26:43;95838.69;;;7.55;51.81
46456;BME280;64052;47.466;9.094;2023-03-15T07:31:44;95843.13;;;7.91;51.18
46456;BME280;64052;47.466;9.094;2023-03-15T07:36:45;95847.75;;;7.87;50.30
46456;BME280;64052;47.466;9.094;2023-03-15T07:41:48;95856.50;;;7.63;51.00
46456;BME280;64052;47.466;9.094;2023-03-15T07:46:57;95847.78;;;7.98;50.20
46456;BME280;64052;47.466;9.094;2023-03-15T07:51:59;95850.25;;;8.36;49.95
46456;BME280;64052;47.466;9.094;2023-03-15T07:57:00;95851.53;;;8.77;49.69
46456;BME280;64052;47.466;9.094;2023-03-15T08:02:02;95850.59;;;8.67;50.49
46456;BME280;64052;47.466;9.094;2023-03-15T08:07:04;95849.88;;;8.65;49.30
46456;BME280;64052;47.466;9.094;2023-03-15T08:12:06;95853.56;;;8.62;48.11
46456;BME280;64052;47.466;9.094;2023-03-15T08:17:07;95851.03;;;8.61;47.68
46456;BME280;64052;47.466;9.094;2023-03-15T08:22:09;95863.00;;;8.65;47.96
46456;BME280;64052;47.466;9.094;2023-03-15T08:27:11;95865.41;;;8.79;48.41
46456;BME280;64052;47.466;9.094;2023-03-15T08:32:12;95856.06;;;8.64;45.55
46456;BME280;64052;47.466;9.094;2023-03-15T08:37:14;95857.66;;;8.19;45.43
46456;BME280;64052;47.466;9.094;2023-03-15T08:42:15;95854.00;;;7.97;45.70
46456;BME280;64052;47.466;9.094;2023-03-15T08:47:17;95859.06;;;7.52;46.79
46456;BME280;64052;47.466;9.094;2023-03-15T08:52:19;95853.88;;;7.39;47.08
46456;BME280;64052;47.466;9.094;2023-03-15T08:57:21;95856.53;;;7.74;47.24
46456;BME280;64052;47.466;9.094;2023-03-15T09:02:22;95851.28;;;7.99;45.29
46456;BME280;64052;47.466;9.094;2023-03-15T09:07:24;95846.28;;;8.19;46.81
46456;BME280;64052;47.466;9.094;2023-03-15T09:12:25;95851.25;;;8.46;44.41
46456;BME280;64052;47.466;9.094;2023-03-15T09:17:27;95854.56;;;8.37;45.58
46456;BME280;64052;47.466;9.094;2023-03-15T09:22:28;95848.69;;;8.33;46.26
46456;BME280;64052;47.466;9.094;2023-03-15T09:27:40;95852.47;;;8.06;44.75
46456;BME280;64052;47.466;9.094;2023-03-15T09:32:41;95875.81;;;7.86;43.99
46456;BME280;64052;47.466;9.094;2023-03-15T09:37:43;95864.34;;;7.87;46.85
46456;BME280;64052;47.466;9.094;2023-03-15T09:48:18;95862.41;;;8.25;44.18
46456;BME280;64052;47.466;9.094;2023-03-15T09:53:31;95871.00;;;8.75;44.48
46456;BME280;64052;47.466;9.094;2023-03-15T09:58:36;95871.25;;;8.60;41.89
46456;BME280;64052;47.466;9.094;2023-03-15T10:03:46;95868.97;;;8.67;41.79
46456;BME280;64052;47.466;9.094;2023-03-15T10:08:51;95874.69;;;9.18;39.36
46456;BME280;64052;47.466;9.094;2023-03-15T10:14:04;95868.81;;;9.37;40.41
46456;BME280;64052;47.466;9.094;2023-03-15T10:19:21;95863.81;;;9.66;39.72
46456;BME280;64052;47.466;9.094;2023-03-15T10:24:45;95859.63;;;9.96;36.91
46456;BME280;64052;47.466;9.094;2023-03-15T10:29:51;95853.50;;;10.50;36.99
46456;BME280;64052;47.466;9.094;2023-03-15T10:34:57;95846.91;;;10.65;34.67
46456;BME280;64052;47.466;9.094;2023-03-15T10:39:58;95860.94;;;10.66;35.49
46456;BME280;64052;47.466;9.094;2023-03-15T10:45:20;95852.09;;;9.92;34.84
46456;BME280;64052;47.466;9.094;2023-03-15T10:50:26;95846.53;;;10.06;34.33
46456;BME280;64052;47.466;9.094;2023-03-15T10:55:33;95847.50;;;10.48;34.72
46456;BME280;64052;47.466;9.094;2023-03-15T11:00:36;95848.31;;;10.70;32.84
46456;BME280;64052;47.466;9.094;2023-03-15T11:05:42;95843.97;;;10.16;32.44
46456;BME280;64052;47.466;9.094;2023-03-15T11:10:45;95834.72;;;10.22;34.55
46456;BME280;64052;47.466;9.094;2023-03-15T11:21:09;95837.66;;;9.53;31.15
46456;BME280;64052;47.466;9.094;2023-03-15T11:26:21;95820.84;;;9.66;31.31
46456;BME280;64052;47.466;9.094;2023-03-15T11:31:34;95816.84;;;9.83;30.35
46456;BME280;64052;47.466;9.094;2023-03-15T11:36:39;95812.44;;;10.36;29.98
46456;BME280;64052;47.466;9.094;2023-03-15T11:41:45;95820.59;;;10.75;29.29
46456;BME280;64052;47.466;9.094;2023-03-15T11:46:51;95812.06;;;10.62;29.68
46456;BME280;64052;47.466;9.094;2023-03-15T11:51:56;95809.56;;;11.01;30.05
46456;BME280;64052;47.466;9.094;2023-03-15T11:57:05;95810.03;;;11.26;28.49
46456;BME280;64052;47.466;9.094;2023-03-15T12:22:30;95785.97;;;10.06;29.05
46456;BME280;64052;47.466;9.094;2023-03-15T12:27:34;95788.25;;;10.42;29.66
46456;BME280;64052;47.466;9.094;2023-03-15T12:32:45;95781.88;;;10.86;27.53
46456;BME280;64052;47.466;9.094;2023-03-15T12:37:51;95780.66;;;10.90;28.00
46456;BME280;64052;47.466;9.094;2023-03-15T12:52:58;95767.25;;;11.32;29.17
46456;BME280;64052;47.466;9.094;2023-03-15T12:58:01;95768.53;;;11.58;29.60
46456;BME280;64052;47.466;9.094;2023-03-15T13:03:14;95777.16;;;11.79;29.61
46456;BME280;64052;47.466;9.094;2023-03-15T13:08:23;95770.44;;;11.75;28.87
46456;BME280;64052;47.466;9.094;2023-03-15T13:23:55;95775.03;;;11.73;27.34
46456;BME280;64052;47.466;9.094;2023-03-15T13:29:10;95775.16;;;11.13;27.43
46456;BME280;64052;47.466;9.094;2023-03-15T13:34:19;95769.03;;;11.22;28.32
46456;BME280;64052;47.466;9.094;2023-03-15T13:39:24;95771.44;;;11.45;27.05
46456;BME280;64052;47.466;9.094;2023-03-15T13:44:28;95774.78;;;11.57;28.85
46456;BME280;64052;47.466;9.094;2023-03-15T13:49:31;95769.19;;;11.70;27.94
46456;BME280;64052;47.466;9.094;2023-03-15T13:54:33;95769.63;;;11.45;27.72
46456;BME280;64052;47.466;9.094;2023-03-15T13:59:58;95767.50;;;11.09;27.76
46456;BME280;64052;47.466;9.094;2023-03-15T14:05:04;95766.91;;;10.96;28.37
46456;BME280;64052;47.466;9.094;2023-03-15T14:20:56;95766.13;;;12.04;27.21
46456;BME280;64052;47.466;9.094;2023-03-15T14:26:16;95766.31;;;11.43;26.38
46456;BME280;64052;47.466;9.094;2023-03-15T14:31:21;95765.88;;;11.38;27.95
46456;BME280;64052;47.466;9.094;2023-03-15T14:36:29;95773.38;;;11.33;28.62
46456;BME280;64052;47.466;9.094;2023-03-15T14:41:32;95772.53;;;11.13;29.68
46456;BME280;64052;47.466;9.094;2023-03-15T14:46:33;95767.81;;;11.95;29.91
46456;BME280;64052;47.466;9.094;2023-03-15T14:51:37;95770.81;;;13.42;28.42
46456;BME280;64052;47.466;9.094;2023-03-15T14:56:39;95769.59;;;13.36;27.87
46456;BME280;64052;47.466;9.094;2023-03-15T15:01:48;95768.31;;;13.22;28.28
46456;BME280;64052;47.466;9.094;2023-03-15T15:06:50;95771.75;;;15.01;25.26
46456;BME280;64052;47.466;9.094;2023-03-15T15:11:53;95769.91;;;15.69;24.56
46456;BME280;64052;47.466;9.094;2023-03-15T15:16:54;95753.13;;;16.27;23.89
46456;BME280;64052;47.466;9.094;2023-03-15T15:21:56;95757.63;;;16.10;24.10
46456;BME280;64052;47.466;9.094;2023-03-15T15:26:58;95756.28;;;15.81;24.08
46456;BME280;64052;47.466;9.094;2023-03-15T15:31:59;95761.06;;;13.97;25.99
46456;BME280;64052;47.466;9.094;2023-03-15T15:37:01;95764.97;;;12.92;28.05
46456;BME280;64052;47.466;9.094;2023-03-15T15:42:02;95758.41;;;13.24;27.00
46456;BME280;64052;47.466;9.094;2023-03-15T15:47:04;95763.28;;;13.19;28.71
46456;BME280;64052;47.466;9.094;2023-03-15T15:52:10;95769.44;;;13.38;28.68
46456;BME280;64052;47.466;9.094;2023-03-15T15:57:12;95786.28;;;13.65;28.00
46456;BME280;64052;47.466;9.094;2023-03-15T16:02:15;95792.28;;;13.39;28.93
46456;BME280;64052;47.466;9.094;2023-03-15T16:07:16;95790.75;;;12.90;29.78
46456;BME280;64052;47.466;9.094;2023-03-15T16:12:18;95800.63;;;12.12;29.91
46456;BME280;64052;47.466;9.094;2023-03-15T16:17:22;95800.19;;;11.97;31.59
46456;BME280;64052;47.466;9.094;2023-03-15T16:22:23;95806.03;;;12.20;31.71
46456;BME280;64052;47.466;9.094;2023-03-15T16:27:26;95815.13;;;12.56;31.24
46456;BME280;64052;47.466;9.094;2023-03-15T16:32:28;95824.91;;;12.83;29.87
46456;BME280;64052;47.466;9.094;2023-03-15T16:37:44;95826.94;;;12.99;30.05
46456;BME280;64052;47.466;9.094;2023-03-15T16:42:47;95831.31;;;12.81;29.12
46456;BME280;64052;47.466;9.094;2023-03-15T16:47:49;95840.75;;;12.45;31.02
46456;BME280;64052;47.466;9.094;2023-03-15T16:52:52;95841.38;;;12.29;29.95
46456;BME280;64052;47.466;9.094;2023-03-15T16:57:55;95847.22;;;12.03;29.78
46456;BME280;64052;47.466;9.094;2023-03-15T17:02:57;95855.13;;;11.84;29.69
46456;BME280;64052;47.466;9.094;2023-03-15T17:07:58;95854.75;;;12.18;30.27
46456;BME280;64052;47.466;9.094;2023-03-15T17:13:01;95855.94;;;11.64;30.26
46456;BME280;64052;47.466;9.094;2023-03-15T17:18:08;95868.19;;;11.56;30.63
46456;BME280;64052;47.466;9.094;2023-03-15T17:23:14;95877.34;;;11.61;31.18
46456;BME280;64052;47.466;9.094;2023-03-15T17:28:16;95898.63;;;11.19;31.76
46456;BME280;64052;47.466;9.094;2023-03-15T17:33:18;95903.91;;;11.19;31.60
46456;BME280;64052;47.466;9.094;2023-03-15T17:38:28;95906.38;;;11.10;32.12
46456;BME280;64052;47.466;9.094;2023-03-15T17:43:30;95912.28;;;10.93;33.15
46456;BME280;64052;47.466;9.094;2023-03-15T17:48:32;95918.47;;;10.82;32.99
46456;BME280;64052;47.466;9.094;2023-03-15T17:53:34;95920.72;;;10.87;34.01
46456;BME280;64052;47.466;9.094;2023-03-15T17:58:36;95926.25;;;10.62;34.94
46456;BME280;64052;47.466;9.094;2023-03-15T18:03:38;95931.69;;;9.95;36.47
46456;BME280;64052;47.466;9.094;2023-03-15T18:08:40;95939.91;;;10.13;36.07
46456;BME280;64052;47.466;9.094;2023-03-15T18:13:42;95939.13;;;10.02;37.12
46456;BME280;64052;47.466;9.094;2023-03-15T18:18:44;95949.25;;;9.62;38.52
46456;BME280;64052;47.466;9.094;2023-03-15T18:23:46;95951.31;;;9.47;38.71
46456;BME280;64052;47.466;9.094;2023-03-15T18:28:47;95949.75;;;9.45;39.93
46456;BME280;64052;47.466;9.094;2023-03-15T18:33:50;95952.41;;;9.33;40.87
46456;BME280;64052;47.466;9.094;2023-03-15T18:38:52;95949.41;;;9.04;40.87
46456;BME280;64052;47.466;9.094;2023-03-15T18:43:53;95963.16;;;8.84;40.72
46456;BME280;64052;47.466;9.094;2023-03-15T18:48:55;95948.34;;;8.95;41.53
46456;BME280;64052;47.466;9.094;2023-03-15T18:53:56;95947.69;;;8.68;43.09
46456;BME280;64052;47.466;9.094;2023-03-15T18:59:00;95954.78;;;8.43;43.39
46456;BME280;64052;47.466;9.094;2023-03-15T19:04:02;95954.44;;;8.12;44.69
46456;BME280;64052;47.466;9.094;2023-03-15T19:09:04;95951.41;;;7.81;44.78
46456;BME280;64052;47.466;9.094;2023-03-15T19:14:07;95953.09;;;7.58;44.59
46456;BME280;64052;47.466;9.094;2023-03-15T19:19:08;95958.66;;;7.53;44.56
46456;BME280;64052;47.466;9.094;2023-03-15T19:24:10;95960.09;;;7.70;45.51
46456;BME280;64052;47.466;9.094;2023-03-15T19:29:11;95959.22;;;7.70;45.88
46456;BME280;64052;47.466;9.094;2023-03-15T19:34:13;95958.91;;;7.74;44.75
46456;BME280;64052;47.466;9.094;2023-03-15T19:39:14;95959.97;;;7.72;45.34
46456;BME280;64052;47.466;9.094;2023-03-15T19:44:16;95957.94;;;7.76;45.43
46456;BME280;64052;47.466;9.094;2023-03-15T19:49:17;95953.84;;;7.84;46.13
46456;BME280;64052;47.466;9.094;2023-03-15T19:54:19;95954.66;;;7.85;46.03
46456;BME280;64052;47.466;9.094;2023-03-15T19:59:20;95945.91;;;7.97;46.10
46456;BME280;64052;47.466;9.094;2023-03-15T20:04:22;95945.41;;;7.92;46.56
46456;BME280;64052;47.466;9.094;2023-03-15T20:09:23;95949.03;;;8.02;46.21
46456;BME280;64052;47.466;9.094;2023-03-15T20:14:25;95957.31;;;8.09;46.15
46456;BME280;64052;47.466;9.094;2023-03-15T20:19:26;95951.88;;;7.99;47.16
46456;BME280;64052;47.466;9.094;2023-03-15T20:24:28;95966.75;;;7.87;47.13
46456;BME280;64052;47.466;9.094;2023-03-15T20:29:30;95977.63;;;7.94;46.69
46456;BME280;64052;47.466;9.094;2023-03-15T20:34:32;95980.72;;;8.12;46.01
46456;BME280;64052;47.466;9.094;2023-03-15T20:39:33;95981.88;;;7.84;47.72
46456;BME280;64052;47.466;9.094;2023-03-15T20:44:35;95990.25;;;7.89;46.99
46456;BME280;64052;47.466;9.094;2023-03-15T20:49:37;95989.38;;;7.64;47.40
46456;BME280;64052;47.466;9.094;2023-03-15T20:54:39;95998.75;;;7.55;47.72
46456;BME280;64052;47.466;9.094;2023-03-15T20:59:41;95996.25;;;7.54;47.67
46456;BME280;64052;47.466;9.094;2023-03-15T21:04:43;96000.53;;;7.55;48.05
46456;BME280;64052;47.466;9.094;2023-03-15T21:09:45;95997.84;;;7.30;48.16
46456;BME280;64052;47.466;9.094;2023-03-15T21:14:46;96004.78;;;7.19;48.36
46456;BME280;64052;47.466;9.094;2023-03-15T21:19:48;96005.84;;;7.16;48.59
46456;BME280;64052;47.466;9.094;2023-03-15T21:24:49;96003.31;;;7.01;49.27
46456;BME280;64052;47.466;9.094;2023-03-15T21:29:56;95988.41;;;6.76;48.88
46456;BME280;64052;47.466;9.094;2023-03-15T21:34:58;96001.41;;;6.52;50.35
46456;BME280;64052;47.466;9.094;2023-03-15T21:40:00;96000.25;;;6.56;50.51
46456;BME280;64052;47.466;9.094;2023-03-15T21:45:01;95996.16;;;6.52;50.59
46456;BME280;64052;47.466;9.094;2023-03-15T21:50:03;96002.81;;;6.30;50.40
46456;BME280;64052;47.466;9.094;2023-03-15T21:55:06;96005.94;;;5.80;51.00
46456;BME280;64052;47.466;9.094;2023-03-15T22:00:09;95998.34;;;5.90;51.35
46456;BME280;64052;47.466;9.094;2023-03-15T22:05:12;95989.28;;;5.68;51.43
46456;BME280;64052;47.466;9.094;2023-03-15T22:10:13;96003.75;;;6.01;50.75
46456;BME280;64052;47.466;9.094;2023-03-15T22:15:15;96013.63;;;5.69;51.82
46456;BME280;64052;47.466;9.094;2023-03-15T22:20:17;96012.63;;;5.71;52.57
46456;BME280;64052;47.466;9.094;2023-03-15T22:25:18;96020.63;;;5.83;52.23
46456;BME280;64052;47.466;9.094;2023-03-15T22:30:20;96016.13;;;5.85;51.66
46456;BME280;64052;47.466;9.094;2023-03-15T22:35:21;96015.88;;;5.60;51.72
46456;BME280;64052;47.466;9.094;2023-03-15T22:40:25;96003.56;;;5.48;52.06
46456;BME280;64052;47.466;9.094;2023-03-15T22:45:27;96010.78;;;5.44;52.18
46456;BME280;64052;47.466;9.094;2023-03-15T22:50:29;96018.25;;;5.36;52.71
46456;BME280;64052;47.466;9.094;2023-03-15T22:55:31;96018.25;;;5.36;52.67
46456;BME280;64052;47.466;9.094;2023-03-15T23:00:32;96020.59;;;5.41;52.35
46456;BME280;64052;47.466;9.094;2023-03-15T23:05:34;96014.53;;;5.26;53.10
46456;BME280;64052;47.466;9.094;2023-03-15T23:10:36;96009.97;;;5.15;52.90
46456;BME280;64052;47.466;9.094;2023-03-15T23:15:37;96005.75;;;5.12;53.28
46456;BME280;64052;47.466;9.094;2023-03-15T23:20:40;96007.53;;;5.12;53.47
46456;BME280;64052;47.466;9.094;2023-03-15T23:25:42;96004.47;;;5.19;52.61
46456;BME280;64052;47.466;9.094;2023-03-15T23:30:44;96004.63;;;5.02;53.99
46456;BME280;64052;47.466;9.094;2023-03-15T23:35:45;96003.97;;;4.98;54.33
46456;BME280;64052;47.466;9.094;2023-03-15T23:40:57;96008.56;;;4.95;54.13
46456;BME280;64052;47.466;9.094;2023-03-15T23:46:01;96014.41;;;4.98;53.94
46456;BME280;64052;47.466;9.094;2023-03-15T23:51:03;96008.91;;;5.03;53.99
46456;BME280;64052;47.466;9.094;2023-03-15T23:56:05;96008.38;;;4.83;54.61
